Flugplatz Buchel Airport

Bericht für ETSB

vom 28.09. um 21:20 UTC

Wind 3 kt aus 120°

Sichtweite 10 km oder mehr

Temperatur 11.0°C

Taupunkt 7.0°C

Luftfeuchtigkeit 76%

Luftdruck 1019 hPa

ETSB 282120Z AUTO 12003KT 9999 // ////// 11/07 Q1019 ///

Prognose für ETSB

vom 28.09. um 13:20 UTC

Zwischen 14:00 UTC und 23:00 UTC

Wind 5 kt aus 120°

Sichtweite 10 km oder mehr

keine signifikanten Wettererscheinungen

aufgelockert bewölkt in 1500 ft

aufgebrochene Bewölkung in 15000 ft

TAF ETSB 281320Z 2814/2823 12005KT 9999 NSW SCT015 BKN150 BY ETGL
Impressum